createdAt,value
2018-05-27T00:00:25.660Z,0
2018-05-27T00:01:35.658Z,0
2018-05-27T00:02:45.628Z,0
2018-05-27T00:03:55.099Z,0
2018-05-27T00:05:05.064Z,0
2018-05-27T00:06:14.777Z,0
2018-05-27T00:07:24.535Z,0
2018-05-27T00:08:34.529Z,0
2018-05-27T00:09:44.510Z,0
2018-05-27T00:10:54.504Z,0
2018-05-27T00:12:04.481Z,0
2018-05-27T00:13:14.462Z,0
2018-05-27T00:14:24.181Z,0
2018-05-27T00:15:33.637Z,0
2018-05-27T00:16:43.091Z,0
2018-05-27T00:17:53.064Z,0
2018-05-27T00:19:03.053Z,0
2018-05-27T00:20:13.033Z,0
2018-05-27T00:21:23.022Z,0
2018-05-27T00:22:32.742Z,0
2018-05-27T00:23:42.211Z,0
2018-05-27T00:24:51.919Z,0
2018-05-27T00:26:01.909Z,0
2018-05-27T00:27:11.891Z,0
2018-05-27T00:28:21.870Z,0
2018-05-27T00:29:31.869Z,0
2018-05-27T00:30:41.842Z,0
2018-05-27T00:31:51.867Z,0
2018-05-27T00:33:01.867Z,0
2018-05-27T00:34:11.836Z,0
2018-05-27T00:35:21.842Z,0
2018-05-27T00:36:31.602Z,0
2018-05-27T00:37:41.564Z,0
2018-05-27T00:38:51.275Z,0
2018-05-27T00:40:01.263Z,0
2018-05-27T00:41:11.271Z,0
2018-05-27T00:42:21.290Z,0
2018-05-27T00:43:31.273Z,0
2018-05-27T00:44:41.240Z,0
2018-05-27T00:45:50.971Z,0
2018-05-27T00:47:00.687Z,0
2018-05-27T00:48:10.664Z,0
2018-05-27T00:49:20.644Z,0
2018-05-27T00:50:30.627Z,0
2018-05-27T00:51:40.353Z,0
2018-05-27T00:52:50.327Z,0
2018-05-27T00:54:00.304Z,0
2018-05-27T00:55:10.031Z,0
2018-05-27T00:56:19.999Z,0
2018-05-27T00:57:29.978Z,0
2018-05-27T00:58:39.430Z,0
2018-05-27T00:59:49.420Z,0
2018-05-27T01:00:59.151Z,0
2018-05-27T01:02:09.143Z,0
2018-05-27T01:03:18.860Z,0
2018-05-27T01:04:28.573Z,0
2018-05-27T01:05:38.551Z,0
2018-05-27T01:06:48.533Z,0
2018-05-27T01:07:58.501Z,0
2018-05-27T01:09:08.234Z,0
2018-05-27T01:10:18.222Z,0
2018-05-27T01:11:28.198Z,0
2018-05-27T01:12:38.170Z,0
2018-05-27T01:13:47.882Z,0
2018-05-27T01:14:57.608Z,0
2018-05-27T01:16:07.569Z,0
2018-05-27T01:17:17.557Z,0
2018-05-27T01:18:27.541Z,0
2018-05-27T01:19:37.512Z,0
2018-05-27T01:20:47.498Z,0
2018-05-27T01:21:57.227Z,0
2018-05-27T01:23:07.204Z,0
2018-05-27T01:24:17.168Z,0
2018-05-27T01:25:27.137Z,0
2018-05-27T01:26:36.881Z,0
2018-05-27T01:27:46.582Z,0
2018-05-27T01:28:56.571Z,0
2018-05-27T01:30:06.551Z,0
2018-05-27T01:31:16.545Z,0
2018-05-27T01:32:26.530Z,0
2018-05-27T01:33:36.251Z,0
2018-05-27T01:34:46.212Z,0
2018-05-27T01:35:55.931Z,0
2018-05-27T01:37:05.905Z,0
2018-05-27T01:38:15.875Z,0
2018-05-27T01:39:25.611Z,0
2018-05-27T01:40:35.580Z,0
2018-05-27T01:41:45.297Z,0
2018-05-27T01:42:55.270Z,0
2018-05-27T01:44:04.992Z,0
2018-05-27T01:45:14.702Z,0
2018-05-27T01:46:24.423Z,0
2018-05-27T01:47:34.129Z,0
2018-05-27T01:48:44.111Z,0
2018-05-27T01:49:54.083Z,0
2018-05-27T01:51:04.058Z,0
2018-05-27T01:52:14.025Z,0
2018-05-27T01:53:23.746Z,0
2018-05-27T01:54:33.198Z,0
2018-05-27T01:55:42.910Z,0
2018-05-27T01:56:52.883Z,0
2018-05-27T01:58:02.606Z,0
2018-05-27T01:59:12.320Z,0
2018-05-27T02:00:22.291Z,0
2018-05-27T02:01:32.058Z,0
2018-05-27T02:02:42.022Z,0
2018-05-27T02:03:51.719Z,0
2018-05-27T02:05:01.452Z,0
2018-05-27T02:06:11.184Z,0
2018-05-27T02:07:21.160Z,0
2018-05-27T02:08:31.129Z,0
2018-05-27T02:09:41.102Z,0
2018-05-27T02:10:51.078Z,0
2018-05-27T02:12:00.794Z,4
2018-05-27T02:13:10.258Z,4
2018-05-27T02:14:20.247Z,4
2018-05-27T02:15:30.278Z,4
2018-05-27T02:16:39.995Z,4
2018-05-27T02:17:49.971Z,4
2018-05-27T02:18:59.570Z,8
2018-05-27T02:20:09.541Z,4
2018-05-27T02:21:19.515Z,8
2018-05-27T02:22:29.224Z,8
2018-05-27T02:23:39.201Z,12
2018-05-27T02:24:49.176Z,12
2018-05-27T02:25:59.159Z,12
2018-05-27T02:27:09.132Z,16
2018-05-27T02:28:19.109Z,20
2018-05-27T02:29:28.589Z,24
2018-05-27T02:30:38.571Z,28
2018-05-27T02:31:48.608Z,28
2018-05-27T02:32:58.584Z,36
2018-05-27T02:34:08.564Z,40
2018-05-27T02:35:18.029Z,44
2018-05-27T02:36:28.009Z,52
2018-05-27T02:37:38.009Z,60
2018-05-27T02:38:47.726Z,72
2018-05-27T02:39:57.712Z,80
2018-05-27T02:41:07.717Z,92
2018-05-27T02:42:17.699Z,108
2018-05-27T02:43:27.669Z,124
2018-05-27T02:44:37.650Z,144
2018-05-27T02:45:47.668Z,160
2018-05-27T02:46:57.653Z,180
2018-05-27T02:48:07.659Z,200
2018-05-27T02:49:17.412Z,224
2018-05-27T02:50:27.131Z,248
2018-05-27T02:51:37.353Z,276
2018-05-27T02:52:47.079Z,304
2018-05-27T02:53:57.055Z,340
2018-05-27T02:55:06.780Z,372
2018-05-27T02:56:16.492Z,412
2018-05-27T02:57:26.196Z,448
2018-05-27T02:58:36.164Z,488
2018-05-27T02:59:45.881Z,528
2018-05-27T03:00:55.855Z,576
2018-05-27T03:02:05.857Z,620
2018-05-27T03:03:15.575Z,668
2018-05-27T03:04:25.556Z,716
2018-05-27T03:05:35.539Z,772
2018-05-27T03:06:45.515Z,824
2018-05-27T03:07:55.498Z,876
2018-05-27T03:09:05.217Z,932
2018-05-27T03:10:15.191Z,988
2018-05-27T03:11:25.170Z,1048
2018-05-27T03:12:35.135Z,1112
2018-05-27T03:13:45.353Z,1180
2018-05-27T03:14:55.332Z,1248
2018-05-27T03:16:05.309Z,1320
2018-05-27T03:17:15.021Z,1384
2018-05-27T03:18:24.985Z,1456
2018-05-27T03:19:34.955Z,1524
2018-05-27T03:20:44.944Z,1600
2018-05-27T03:21:54.397Z,1672
2018-05-27T03:23:04.399Z,1752
2018-05-27T03:24:14.118Z,1832
2018-05-27T03:25:24.084Z,1908
2018-05-27T03:26:34.043Z,1988
2018-05-27T03:27:43.508Z,2072
2018-05-27T03:28:53.480Z,2152
2018-05-27T03:30:03.461Z,2232
2018-05-27T03:31:13.451Z,2312
2018-05-27T03:32:23.172Z,2392
2018-05-27T03:33:33.148Z,2472
2018-05-27T03:34:43.118Z,2552
2018-05-27T03:35:52.840Z,2632
2018-05-27T03:37:02.811Z,2720
2018-05-27T03:38:12.782Z,2800
2018-05-27T03:39:22.747Z,2884
2018-05-27T03:40:32.460Z,2968
2018-05-27T03:41:42.437Z,3048
2018-05-27T03:42:51.900Z,3132
2018-05-27T03:44:01.873Z,3212
2018-05-27T03:45:11.852Z,3300
2018-05-27T03:46:21.838Z,3376
2018-05-27T03:47:31.551Z,3460
2018-05-27T03:48:41.541Z,3540
2018-05-27T03:49:51.506Z,3620
2018-05-27T03:51:01.476Z,3708
2018-05-27T03:52:11.470Z,3792
2018-05-27T03:53:21.187Z,3876
2018-05-27T03:54:30.915Z,3956
2018-05-27T03:55:40.362Z,4036
2018-05-27T03:56:50.077Z,4124
2018-05-27T03:58:00.051Z,4204
2018-05-27T03:59:09.762Z,4284
2018-05-27T04:00:19.735Z,4368
2018-05-27T04:01:29.440Z,4444
2018-05-27T04:02:39.413Z,4516
2018-05-27T04:03:49.117Z,4588
2018-05-27T04:04:59.088Z,4668
2018-05-27T04:06:09.082Z,4736
2018-05-27T04:07:19.060Z,4808
2018-05-27T04:08:28.777Z,4884
2018-05-27T04:09:38.743Z,4952
2018-05-27T04:10:48.817Z,5024
2018-05-27T04:11:58.792Z,5092
2018-05-27T04:13:08.759Z,5160
2018-05-27T04:14:18.494Z,5236
2018-05-27T04:15:27.952Z,5296
2018-05-27T04:16:37.918Z,5368
2018-05-27T04:17:47.639Z,5432
2018-05-27T04:18:57.620Z,5492
2018-05-27T04:20:07.605Z,5560
2018-05-27T04:21:17.595Z,5628
2018-05-27T04:22:27.567Z,5692
2018-05-27T04:23:37.561Z,5752
2018-05-27T04:24:47.533Z,5812
2018-05-27T04:25:57.248Z,5868
2018-05-27T04:27:07.211Z,5932
2018-05-27T04:28:16.928Z,5984
2018-05-27T04:29:26.409Z,6048
2018-05-27T04:30:36.394Z,6096
2018-05-27T04:31:46.376Z,6152
2018-05-27T04:32:56.080Z,6212
2018-05-27T04:34:06.049Z,6264
2018-05-27T04:35:15.756Z,6320
2018-05-27T04:36:25.750Z,6384
2018-05-27T04:37:35.723Z,6440
2018-05-27T04:38:45.428Z,6504
2018-05-27T04:39:55.134Z,6556
2018-05-27T04:41:05.102Z,6616
2018-05-27T04:42:14.808Z,6664
2018-05-27T04:43:24.519Z,6716
2018-05-27T04:44:34.232Z,6764
2018-05-27T04:45:44.204Z,6812
2018-05-27T04:46:53.953Z,6864
2018-05-27T04:48:03.927Z,6920
2018-05-27T04:49:13.911Z,6976
2018-05-27T04:50:23.627Z,7032
2018-05-27T04:51:33.339Z,7088
2018-05-27T04:52:43.318Z,7140
2018-05-27T04:53:53.040Z,7208
2018-05-27T04:55:02.749Z,7256
2018-05-27T04:56:12.726Z,7308
2018-05-27T04:57:22.701Z,7364
2018-05-27T04:58:32.406Z,7420
2018-05-27T04:59:42.431Z,7492
2018-05-27T05:00:52.408Z,7560
2018-05-27T05:02:02.373Z,7616
2018-05-27T05:03:12.350Z,7672
2018-05-27T05:04:22.055Z,7724
2018-05-27T05:05:31.765Z,7764
2018-05-27T05:06:41.218Z,7800
2018-05-27T05:07:51.191Z,7832
2018-05-27T05:09:00.911Z,7880
2018-05-27T05:10:10.881Z,7908
2018-05-27T05:11:20.851Z,7956
2018-05-27T05:12:30.819Z,8000
2018-05-27T05:13:40.786Z,8052
2018-05-27T05:14:50.848Z,8096
2018-05-27T05:16:00.875Z,8140
2018-05-27T05:17:10.590Z,8176
2018-05-27T05:18:20.574Z,8212
2018-05-27T05:19:30.053Z,8252
2018-05-27T05:20:40.023Z,8292
2018-05-27T05:21:50.001Z,8308
2018-05-27T05:22:59.725Z,8372
2018-05-27T05:24:09.695Z,8408
2018-05-27T05:25:19.408Z,8440
2018-05-27T05:26:29.387Z,8480
2018-05-27T05:27:39.445Z,8500
2018-05-27T05:28:49.154Z,8532
2018-05-27T05:29:59.118Z,8584
2018-05-27T05:31:08.847Z,8620
2018-05-27T05:32:18.819Z,8660
2018-05-27T05:33:28.546Z,8700
2018-05-27T05:34:38.523Z,8760
2018-05-27T05:35:48.505Z,8808
2018-05-27T05:36:58.241Z,8912
2018-05-27T05:38:08.209Z,8980
2018-05-27T05:39:17.931Z,9036
2018-05-27T05:40:27.700Z,9076
2018-05-27T05:41:37.695Z,9116
2018-05-27T05:42:47.659Z,9152
2018-05-27T05:43:57.369Z,9192
2018-05-27T05:45:07.090Z,9232
2018-05-27T05:46:17.063Z,9284
2018-05-27T05:47:27.035Z,9320
2018-05-27T05:48:37.021Z,9360
2018-05-27T05:49:46.742Z,9392
2018-05-27T05:50:56.718Z,9432
2018-05-27T05:52:06.428Z,9472
2018-05-27T05:53:16.417Z,9504
2018-05-27T05:54:26.388Z,9544
2018-05-27T05:55:36.368Z,9592
2018-05-27T05:56:46.329Z,9640
2018-05-27T05:57:56.308Z,9684
2018-05-27T05:59:06.274Z,9712
2018-05-27T06:00:16.260Z,9752
2018-05-27T06:01:26.242Z,9764
2018-05-27T06:02:35.966Z,9812
2018-05-27T06:03:45.680Z,9852
2018-05-27T06:04:55.655Z,9880
2018-05-27T06:06:05.627Z,9912
2018-05-27T06:07:15.603Z,9952
2018-05-27T06:08:25.588Z,9984
2018-05-27T06:09:35.563Z,10020
2018-05-27T06:10:45.540Z,10056
2018-05-27T06:11:55.530Z,10112
2018-05-27T06:13:05.244Z,10140
2018-05-27T06:14:14.690Z,10160
2018-05-27T06:15:24.400Z,10200
2018-05-27T06:16:33.861Z,10268
2018-05-27T06:17:43.579Z,10344
2018-05-27T06:18:53.298Z,10432
2018-05-27T06:20:03.013Z,10504
2018-05-27T06:21:12.994Z,10580
2018-05-27T06:22:22.729Z,10656
2018-05-27T06:23:32.730Z,10716
2018-05-27T06:24:42.465Z,10772
2018-05-27T06:25:52.586Z,10824
2018-05-27T06:27:02.560Z,10876
2018-05-27T06:28:12.535Z,10960
2018-05-27T06:29:22.514Z,11040
2018-05-27T06:30:32.235Z,11092
2018-05-27T06:31:42.213Z,11128
2018-05-27T06:32:51.678Z,11196
2018-05-27T06:34:01.399Z,11252
2018-05-27T06:35:11.383Z,11340
2018-05-27T06:36:21.362Z,11408
2018-05-27T06:37:31.345Z,11412
2018-05-27T06:38:41.110Z,11456
2018-05-27T06:39:51.142Z,11508
2018-05-27T06:41:00.881Z,11552
2018-05-27T06:42:10.616Z,11580
2018-05-27T06:43:20.341Z,11624
2018-05-27T06:44:30.365Z,11712
2018-05-27T06:45:39.818Z,11780
2018-05-27T06:46:49.797Z,11828
2018-05-27T06:47:59.522Z,11876
2018-05-27T06:49:09.232Z,11896
2018-05-27T06:50:19.201Z,11980
2018-05-27T06:51:29.174Z,12064
2018-05-27T06:52:39.143Z,12140
2018-05-27T06:53:49.124Z,12164
2018-05-27T06:54:59.104Z,12232
2018-05-27T06:56:08.838Z,12300
2018-05-27T06:57:18.813Z,12304
2018-05-27T06:58:28.535Z,12436
2018-05-27T06:59:38.521Z,12468
2018-05-27T07:00:48.511Z,12556
2018-05-27T07:01:58.485Z,12608
2018-05-27T07:03:08.214Z,12648
2018-05-27T07:04:18.190Z,12708
2018-05-27T07:05:28.180Z,12768
2018-05-27T07:06:37.902Z,12820
2018-05-27T07:07:47.875Z,12860
2018-05-27T07:08:57.855Z,12904
2018-05-27T07:10:07.895Z,12932
2018-05-27T07:11:17.870Z,13004
2018-05-27T07:12:27.580Z,13112
2018-05-27T07:13:37.571Z,13128
2018-05-27T07:14:47.586Z,13112
2018-05-27T07:15:57.320Z,13184
2018-05-27T07:17:07.489Z,13228
2018-05-27T07:18:17.634Z,13256
2018-05-27T07:19:27.610Z,13300
2018-05-27T07:20:37.346Z,13348
2018-05-27T07:21:47.329Z,13384
2018-05-27T07:22:57.356Z,13448
2018-05-27T07:24:06.840Z,13516
2018-05-27T07:25:16.566Z,13560
2018-05-27T07:26:26.536Z,13620
2018-05-27T07:27:36.526Z,13708
2018-05-27T07:28:46.504Z,13776
2018-05-27T07:29:56.485Z,13828
2018-05-27T07:31:06.478Z,13856
2018-05-27T07:32:16.561Z,13892
2018-05-27T07:33:26.655Z,13912
2018-05-27T07:34:36.845Z,13944
2018-05-27T07:35:46.833Z,14004
2018-05-27T07:36:56.826Z,14056
2018-05-27T07:38:06.813Z,14076
2018-05-27T07:39:16.809Z,14092
2018-05-27T07:40:26.581Z,14104
2018-05-27T07:41:36.562Z,14132
2018-05-27T07:42:46.318Z,14180
2018-05-27T07:43:56.036Z,14196
2018-05-27T07:45:06.017Z,14228
2018-05-27T07:46:16.006Z,14260
2018-05-27T07:47:26.012Z,14308
2018-05-27T07:48:36.005Z,14344
2018-05-27T07:49:45.766Z,14380
2018-05-27T07:50:55.242Z,14408
2018-05-27T07:52:05.223Z,14456
2018-05-27T07:53:14.935Z,14508
2018-05-27T07:54:24.677Z,14572
2018-05-27T07:55:34.687Z,14652
2018-05-27T07:56:44.664Z,14736
2018-05-27T07:57:54.655Z,14816
2018-05-27T07:59:04.638Z,14904
2018-05-27T08:00:14.112Z,15012
2018-05-27T08:01:24.101Z,15080
2018-05-27T08:02:34.099Z,15144
2018-05-27T08:03:43.866Z,15244
2018-05-27T08:04:53.888Z,15320
2018-05-27T08:06:03.874Z,15380
2018-05-27T08:07:14.135Z,15436
2018-05-27T08:08:24.177Z,15484
2018-05-27T08:09:34.148Z,15544
2018-05-27T08:10:43.857Z,15644
2018-05-27T08:11:53.586Z,15760
2018-05-27T08:13:03.587Z,15864
2018-05-27T08:14:13.040Z,15988
2018-05-27T08:15:23.025Z,16144
2018-05-27T08:16:33.033Z,16284
2018-05-27T08:17:42.771Z,16388
2018-05-27T08:18:52.756Z,16528
2018-05-27T08:20:02.912Z,16680
2018-05-27T08:21:13.024Z,16828
2018-05-27T08:22:23.007Z,16952
2018-05-27T08:23:32.778Z,17128
2018-05-27T08:24:42.517Z,17336
2018-05-27T08:25:52.499Z,17548
2018-05-27T08:27:02.481Z,17760
2018-05-27T08:28:12.468Z,18084
2018-05-27T08:29:22.448Z,31136
2018-05-27T08:30:32.175Z,45664
2018-05-27T08:31:42.172Z,47328
2018-05-27T08:32:52.157Z,50272
2018-05-27T08:34:02.146Z,52800
2018-05-27T08:35:11.492Z,53024
2018-05-27T08:36:21.485Z,49120
2018-05-27T08:37:31.504Z,48832
2018-05-27T08:38:41.224Z,52160
2018-05-27T08:39:50.963Z,51232
2018-05-27T08:41:00.966Z,50656
2018-05-27T08:42:10.690Z,53280
2018-05-27T08:43:20.692Z,52576
2018-05-27T08:44:30.734Z,51936
2018-05-27T08:45:40.724Z,53120
2018-05-27T08:46:50.456Z,54304
2018-05-27T08:48:00.469Z,54400
2018-05-27T08:49:10.548Z,55456
2018-05-27T08:50:20.578Z,55648
2018-05-27T08:51:30.565Z,58144
2018-05-27T08:52:40.558Z,58400
2018-05-27T08:53:50.547Z,59616
2018-05-27T08:55:00.292Z,60000
2018-05-27T08:56:10.290Z,58848
2018-05-27T08:57:20.386Z,57504
2018-05-27T08:58:30.545Z,58240
2018-05-27T08:59:40.555Z,60000
2018-05-27T09:00:50.547Z,60800
2018-05-27T09:02:00.555Z,61696
2018-05-27T09:03:10.559Z,62016
2018-05-27T09:04:20.550Z,61120
2018-05-27T09:05:30.288Z,59744
2018-05-27T09:06:40.019Z,60352
2018-05-27T09:07:50.009Z,61248
2018-05-27T09:08:59.949Z,62720
2018-05-27T09:10:09.766Z,62400
2018-05-27T09:11:19.756Z,63936
2018-05-27T09:12:29.482Z,64608
2018-05-27T09:13:39.494Z,65312
2018-05-27T09:14:49.484Z,65280
2018-05-27T09:15:59.260Z,64288
2018-05-27T09:17:09.016Z,68224
2018-05-27T09:18:19.014Z,66720
2018-05-27T09:19:29.012Z,66496
2018-05-27T09:20:38.739Z,68576
2018-05-27T09:21:48.724Z,67360
2018-05-27T09:22:58.727Z,69120
2018-05-27T09:24:08.781Z,70144
2018-05-27T09:25:18.843Z,69088
2018-05-27T09:26:28.832Z,70912
2018-05-27T09:27:38.584Z,71424
2018-05-27T09:28:48.343Z,71968
2018-05-27T09:29:58.344Z,74496
2018-05-27T09:31:08.342Z,74240
2018-05-27T09:32:18.333Z,73280
2018-05-27T09:33:28.064Z,75648
2018-05-27T09:34:37.819Z,76896
2018-05-27T09:35:47.559Z,75616
2018-05-27T09:36:57.591Z,76864
2018-05-27T09:38:07.327Z,79552
2018-05-27T09:39:17.531Z,77984
2018-05-27T09:40:27.295Z,76736
2018-05-27T09:41:37.039Z,79008
2018-05-27T09:42:47.024Z,79232
2018-05-27T09:43:57.024Z,75712
2018-05-27T09:45:06.846Z,79200
2018-05-27T09:46:16.882Z,82208
2018-05-27T09:47:26.888Z,80928
2018-05-27T09:48:36.889Z,81984
2018-05-27T09:49:46.621Z,84640
2018-05-27T09:50:56.621Z,84992
2018-05-27T09:52:06.418Z,85760
2018-05-27T09:53:15.896Z,85888
2018-05-27T09:54:25.889Z,83264
2018-05-27T09:55:36.114Z,82208
2018-05-27T09:56:46.117Z,86112
2018-05-27T09:57:56.234Z,87904
2018-05-27T09:59:06.404Z,86432
2018-05-27T10:00:16.165Z,86720
2018-05-27T10:01:26.151Z,84960
2018-05-27T10:02:36.139Z,84736
2018-05-27T10:03:45.880Z,88608
2018-05-27T10:04:55.868Z,93568
2018-05-27T10:06:05.877Z,90528
2018-05-27T10:07:15.882Z,86240
2018-05-27T10:08:25.890Z,92096
2018-05-27T10:09:35.637Z,93216
2018-05-27T10:10:45.645Z,89728
2018-05-27T10:11:55.762Z,93472
2018-05-27T10:13:05.755Z,94080
2018-05-27T10:14:15.751Z,96640
2018-05-27T10:15:25.496Z,95840
2018-05-27T10:16:35.538Z,91264
2018-05-27T10:17:45.021Z,94528
2018-05-27T10:18:55.129Z,94240
2018-05-27T10:20:05.186Z,92672
2018-05-27T10:21:15.194Z,97440
2018-05-27T10:22:24.929Z,100896
2018-05-27T10:23:34.655Z,101856
2018-05-27T10:24:44.677Z,98816
2018-05-27T10:25:54.954Z,99904
2018-05-27T10:27:05.092Z,103328
2018-05-27T10:28:15.093Z,99200
2018-05-27T10:29:25.095Z,101376
2018-05-27T10:30:35.096Z,103904
2018-05-27T10:31:45.098Z,104384
2018-05-27T10:32:55.014Z,100224
2018-05-27T10:34:05.086Z,102016
2018-05-27T10:35:15.088Z,100384
2018-05-27T10:36:25.090Z,101312
2018-05-27T10:37:35.096Z,102816
2018-05-27T10:38:45.107Z,103680
2018-05-27T10:39:55.119Z,111232
2018-05-27T10:41:05.131Z,112256
2018-05-27T10:42:14.880Z,107136
2018-05-27T10:43:24.619Z,105440
2018-05-27T10:44:34.616Z,107008
2018-05-27T10:45:44.611Z,105984
2018-05-27T10:46:54.605Z,110976
2018-05-27T10:48:04.629Z,106016
2018-05-27T10:49:14.609Z,107520
2018-05-27T10:50:24.647Z,112416
2018-05-27T10:51:34.651Z,104832
2018-05-27T10:52:44.648Z,106432
2018-05-27T10:53:54.646Z,115776
2018-05-27T10:55:04.652Z,116992
2018-05-27T10:56:14.648Z,105312
2018-05-27T10:57:24.386Z,108384
2018-05-27T10:58:34.117Z,116448
2018-05-27T10:59:44.109Z,115168
2018-05-27T11:00:54.120Z,109568
2018-05-27T11:02:03.621Z,109600
2018-05-27T11:03:13.611Z,110848
2018-05-27T11:04:23.647Z,109760
2018-05-27T11:05:33.423Z,109056
2018-05-27T11:06:43.212Z,115488
2018-05-27T11:07:52.970Z,112160
2018-05-27T11:09:02.971Z,101920
2018-05-27T11:10:12.709Z,110336
2018-05-27T11:11:22.716Z,120768
2018-05-27T11:12:32.710Z,126304
2018-05-27T11:13:42.706Z,116704
2018-05-27T11:14:52.705Z,109984
2018-05-27T11:16:02.699Z,110272
2018-05-27T11:17:12.696Z,102848
2018-05-27T11:18:22.702Z,106528
2018-05-27T11:19:32.707Z,119424
2018-05-27T11:20:42.856Z,126592
2018-05-27T11:21:52.940Z,118496
2018-05-27T11:23:02.987Z,114752
2018-05-27T11:24:12.986Z,118720
2018-05-27T11:25:22.734Z,121632
2018-05-27T11:26:32.732Z,122880
2018-05-27T11:27:42.763Z,58432
2018-05-27T11:28:52.789Z,47200
2018-05-27T11:30:02.755Z,29568
2018-05-27T11:31:12.755Z,28544
2018-05-27T11:32:22.482Z,28320
2018-05-27T11:33:32.468Z,28896
2018-05-27T11:34:42.473Z,30112
2018-05-27T11:35:52.515Z,31744
2018-05-27T11:37:02.669Z,33184
2018-05-27T11:38:12.411Z,32320
2018-05-27T11:39:22.397Z,28000
2018-05-27T11:40:32.397Z,26976
2018-05-27T11:41:42.391Z,27616
2018-05-27T11:42:52.137Z,30336
2018-05-27T11:44:02.151Z,34656
2018-05-27T11:45:11.886Z,44800
2018-05-27T11:46:21.615Z,57344
2018-05-27T11:47:31.617Z,55200
2018-05-27T11:48:41.825Z,50560
2018-05-27T11:49:51.639Z,47904
2018-05-27T11:51:01.651Z,47360
2018-05-27T11:52:11.385Z,52192
2018-05-27T11:53:21.146Z,60576
2018-05-27T11:54:31.148Z,56000
2018-05-27T11:55:41.145Z,40704
2018-05-27T11:56:51.139Z,33824
2018-05-27T11:58:00.898Z,31872
2018-05-27T11:59:10.900Z,30208
2018-05-27T12:00:20.628Z,28736
2018-05-27T12:01:30.111Z,26368
2018-05-27T12:02:40.112Z,24096
2018-05-27T12:03:49.597Z,23072
2018-05-27T12:04:59.602Z,23392
2018-05-27T12:06:09.604Z,23552
2018-05-27T12:07:19.338Z,23712
2018-05-27T12:08:29.335Z,22304
2018-05-27T12:09:40.447Z,20224
2018-05-27T12:10:50.708Z,18112
2018-05-27T12:12:00.697Z,16256
2018-05-27T12:13:10.677Z,15240
2018-05-27T12:14:20.699Z,13912
2018-05-27T12:15:30.712Z,12972
2018-05-27T12:16:40.716Z,12584
2018-05-27T12:17:50.456Z,12560
2018-05-27T12:19:00.464Z,12808
2018-05-27T12:20:10.200Z,14132
2018-05-27T12:21:20.210Z,15784
2018-05-27T12:22:30.207Z,18752
2018-05-27T12:23:40.227Z,21536
2018-05-27T12:24:50.210Z,24384
2018-05-27T12:26:00.222Z,27904
2018-05-27T12:27:10.245Z,30848
2018-05-27T12:28:20.261Z,30656
2018-05-27T12:29:30.005Z,27104
2018-05-27T12:30:39.734Z,24832
2018-05-27T12:31:49.727Z,22976
2018-05-27T12:32:59.464Z,22016
2018-05-27T12:34:09.226Z,22048
2018-05-27T12:35:19.213Z,22304
2018-05-27T12:36:28.951Z,22464
2018-05-27T12:37:38.935Z,21920
2018-05-27T12:38:48.681Z,20768
2018-05-27T12:39:58.669Z,19904
2018-05-27T12:41:08.685Z,19744
2018-05-27T12:42:18.429Z,19680
2018-05-27T12:43:28.419Z,19488
2018-05-27T12:44:38.157Z,19040
2018-05-27T12:45:47.917Z,18432
2018-05-27T12:46:57.926Z,18080
2018-05-27T12:48:07.414Z,18592
2018-05-27T12:49:17.142Z,20320
2018-05-27T12:50:26.880Z,22976
2018-05-27T12:51:36.623Z,25728
2018-05-27T12:52:46.347Z,28512
2018-05-27T12:53:56.070Z,30368
2018-05-27T12:55:06.064Z,32256
2018-05-27T12:56:15.796Z,34368
2018-05-27T12:57:25.784Z,35744
2018-05-27T12:58:35.783Z,33920
2018-05-27T12:59:45.767Z,33344
2018-05-27T13:00:55.766Z,32704
2018-05-27T13:02:05.501Z,31360
2018-05-27T13:03:15.223Z,29600
2018-05-27T13:04:24.960Z,28064
2018-05-27T13:05:34.674Z,27552
2018-05-27T13:06:44.762Z,27360
2018-05-27T13:07:54.754Z,27520
2018-05-27T13:09:04.498Z,28384
2018-05-27T13:10:14.242Z,29344
2018-05-27T13:11:24.237Z,31136
2018-05-27T13:12:34.233Z,33120
2018-05-27T13:13:44.223Z,35936
2018-05-27T13:14:54.230Z,38496
2018-05-27T13:16:03.975Z,40896
2018-05-27T13:17:13.718Z,44096
2018-05-27T13:18:23.454Z,52672
2018-05-27T13:19:33.462Z,57728
2018-05-27T13:20:42.945Z,51904
2018-05-27T13:21:52.935Z,51584
2018-05-27T13:23:02.967Z,54240
2018-05-27T13:24:12.967Z,56320
2018-05-27T13:25:22.955Z,57568
2018-05-27T13:26:32.955Z,108704
2018-05-27T13:27:42.680Z,87424
2018-05-27T13:28:52.691Z,67072
2018-05-27T13:30:02.534Z,79680
2018-05-27T13:31:12.176Z,64544
2018-05-27T13:32:22.183Z,49664
2018-05-27T13:33:31.648Z,46368
2018-05-27T13:34:41.416Z,46432
2018-05-27T13:35:51.411Z,49536
2018-05-27T13:37:01.406Z,51488
2018-05-27T13:38:11.413Z,84064
2018-05-27T13:39:20.887Z,87520
2018-05-27T13:40:30.895Z,69120
2018-05-27T13:41:40.900Z,97664
2018-05-27T13:42:50.888Z,64288
2018-05-27T13:44:00.890Z,73600
2018-05-27T13:45:10.772Z,66560
2018-05-27T13:46:20.767Z,59552
2018-05-27T13:47:30.504Z,62304
2018-05-27T13:48:40.266Z,57856
2018-05-27T13:49:50.264Z,49408
2018-05-27T13:51:00.275Z,42912
2018-05-27T13:52:10.000Z,38208
2018-05-27T13:53:20.014Z,33760
2018-05-27T13:54:29.231Z,28704
2018-05-27T13:55:39.325Z,26016
2018-05-27T13:56:49.058Z,24448
2018-05-27T13:57:59.075Z,23520
2018-05-27T13:59:09.074Z,23264
2018-05-27T14:00:18.977Z,23136
2018-05-27T14:01:29.059Z,23008
2018-05-27T14:02:38.780Z,22848
2018-05-27T14:03:48.759Z,22592
2018-05-27T14:04:58.503Z,22304
2018-05-27T14:06:08.338Z,21952
2018-05-27T14:07:18.224Z,21600
2018-05-27T14:08:28.217Z,21184
2018-05-27T14:09:38.243Z,20832
2018-05-27T14:10:47.720Z,20480
2018-05-27T14:11:57.707Z,20096
2018-05-27T14:13:07.711Z,19744
2018-05-27T14:14:17.707Z,19424
2018-05-27T14:15:27.706Z,18912
2018-05-27T14:16:37.748Z,18752
2018-05-27T14:17:47.762Z,18656
2018-05-27T14:18:57.765Z,18688
2018-05-27T14:20:07.766Z,18720
2018-05-27T14:21:17.769Z,18656
2018-05-27T14:22:27.485Z,18688
2018-05-27T14:23:37.474Z,18752
2018-05-27T14:24:47.196Z,18880
2018-05-27T14:25:57.195Z,19104
2018-05-27T14:27:07.202Z,19424
2018-05-27T14:28:17.185Z,19744
2018-05-27T14:29:27.175Z,20192
2018-05-27T14:30:37.162Z,20672
2018-05-27T14:31:47.172Z,21216
2018-05-27T14:32:57.170Z,21760
2018-05-27T14:34:07.199Z,22272
2018-05-27T14:35:16.916Z,22560
2018-05-27T14:36:26.910Z,22720
2018-05-27T14:37:36.637Z,22912
2018-05-27T14:38:46.384Z,23040
2018-05-27T14:39:55.847Z,23168
2018-05-27T14:41:05.593Z,23200
2018-05-27T14:42:15.618Z,23168
2018-05-27T14:43:25.359Z,22976
2018-05-27T14:44:35.337Z,22688
2018-05-27T14:45:45.383Z,22240
2018-05-27T14:46:55.385Z,21760
2018-05-27T14:48:05.379Z,21376
2018-05-27T14:49:15.362Z,21120
2018-05-27T14:50:25.083Z,21152
2018-05-27T14:51:35.113Z,21344
2018-05-27T14:52:45.103Z,21760
2018-05-27T14:53:54.841Z,22240
2018-05-27T14:55:04.839Z,23232
2018-05-27T14:56:14.581Z,24576
2018-05-27T14:57:24.070Z,26848
2018-05-27T14:58:34.089Z,28736
2018-05-27T14:59:44.074Z,30368
2018-05-27T15:00:54.058Z,31968
2018-05-27T15:02:03.805Z,32160
2018-05-27T15:03:13.789Z,32288
2018-05-27T15:04:23.769Z,32448
2018-05-27T15:05:33.748Z,32512
2018-05-27T15:06:43.743Z,35712
2018-05-27T15:07:53.732Z,34304
2018-05-27T15:09:03.739Z,31776
2018-05-27T15:10:13.747Z,28576
2018-05-27T15:11:23.477Z,26240
2018-05-27T15:12:33.219Z,24960
2018-05-27T15:13:43.221Z,24320
2018-05-27T15:14:53.207Z,24096
2018-05-27T15:16:03.193Z,24640
2018-05-27T15:17:12.924Z,24896
2018-05-27T15:18:23.026Z,25856
2018-05-27T15:19:33.070Z,27616
2018-05-27T15:20:43.056Z,29120
2018-05-27T15:21:53.050Z,28768
2018-05-27T15:23:02.771Z,27808
2018-05-27T15:24:12.755Z,28768
2018-05-27T15:25:22.589Z,27584